| time (UTC) | temp C | wind direction | speed KPH | gust KPH | rain 1hr cm | rain 24hr cm | rain mn cm | humidity % | barometer mb |
| 20260503020534 | 13 | 278 | 24.1 | 59.5 | 0.00 | 0.00 | 0.00 | 58 | 1017.3 |
| 20260503020035 | 14 | 297 | 41.8 | 59.5 | 0.00 | 0.00 | 0.00 | 58 | 1016.7 |
| 20260503015528 | 16 | 316 | 32.2 | 41.8 | 0.00 | 0.00 | 0.00 | 46 | 1016.4 |
| 20260503015029 | 17 | 325 | 8.0 | 16.1 | 0.00 | 0.00 | 0.00 | 39 | 1016.2 |
| 20260503014528 | 17 | 313 | 0.0 | 14.5 | 0.00 | 0.00 | 0.00 | 37 | 1015.9 |
| 20260503014029 | 17 | 90 | 3.2 | 11.3 | 0.00 | 0.00 | 0.00 | 37 | 1015.8 |
| 20260503013528 | 17 | 67 | 4.8 | 8.0 | 0.00 | 0.00 | 0.00 | 37 | 1015.7 |
| 20260503013028 | 17 | 59 | 0.0 | 8.0 | 0.00 | 0.00 | 0.00 | 37 | 1015.7 |
| 20260503012527 | 18 | 24 | 4.8 | 8.0 | 0.00 | 0.00 | 0.00 | 36 | 1015.7 |
| 20260503012028 | 18 | 355 | 3.2 | 8.0 | 0.00 | 0.00 | 0.00 | 36 | 1015.6 |
| 20260503011527 | 18 | 67 | 4.8 | 8.0 | 0.00 | 0.00 | 0.00 | 36 | 1015.7 |
| 20260503011026 | 18 | 78 | 3.2 | 8.0 | 0.00 | 0.00 | 0.00 | 36 | 1015.7 |
| 20260503010525 | 18 | 74 | 3.2 | 8.0 | 0.00 | 0.00 | 0.00 | 36 | 1015.8 |
| 20260503010025 | 18 | 77 | 3.2 | 8.0 | 0.00 | 0.00 | 0.00 | 36 | 1015.8 |
| 20260503005525 | 18 | 360 | 3.2 | 9.7 | 0.00 | 0.00 | 0.00 | 37 | 1015.8 |
| 20260503005025 | 18 | 61 | 4.8 | 16.1 | 0.00 | 0.00 | 0.00 | 37 | 1015.8 |
| 20260503004524 | 18 | 21 | 4.8 | 16.1 | 0.00 | 0.00 | 0.00 | 37 | 1015.9 |
| 20260503004024 | 18 | 36 | 6.4 | 19.3 | 0.00 | 0.00 | 0.00 | 38 | 1016.0 |
| 20260503003524 | 18 | 28 | 9.7 | 19.3 | 0.00 | 0.00 | 0.00 | 38 | 1015.9 |
| 20260503003031 | 18 | 9 | 9.7 | 20.9 | 0.00 | 0.00 | 0.00 | 38 | 1015.9 |
| 20260503002524 | 18 | 55 | 6.4 | 20.9 | 0.00 | 0.00 | 0.00 | 36 | 1016.0 |
| 20260503002023 | 18 | 80 | 6.4 | 12.9 | 0.00 | 0.00 | 0.00 | 35 | 1015.9 |
| 20260503001523 | 19 | 66 | 4.8 | 9.7 | 0.00 | 0.00 | 0.00 | 35 | 1015.9 |
| 20260503001022 | 19 | 324 | 4.8 | 14.5 | 0.00 | 0.00 | 0.00 | 35 | 1015.9 |
| 20260503000523 | 19 | 324 | 4.8 | 8.0 | 0.00 | 0.00 | 0.00 | 36 | 1016.0 |
| 20260503000028 | 19 | 275 | 3.2 | 9.7 | 0.00 | 0.00 | 0.00 | 35 | 1015.8 |
| 20260502235519 | 18 | 294 | 3.2 | 12.9 | 0.00 | 0.00 | 0.00 | 36 | 1016.0 |
| 20260502235018 | 18 | 193 | 1.6 | 19.3 | 0.00 | 0.00 | 0.00 | 37 | 1016.1 |
| 20260502234534 | 18 | 349 | 4.8 | 25.7 | 0.00 | 0.00 | 0.00 | 38 | 1016.2 |
| 20260502234016 | 18 | 314 | 19.3 | 25.7 | 0.00 | 0.00 | 0.00 | 38 | 1016.4 |
| 20260502233516 | 18 | 323 | 11.3 | 20.9 | 0.00 | 0.00 | 0.00 | 37 | 1016.6 |
| 20260502233014 | 18 | 287 | 12.9 | 24.1 | 0.00 | 0.00 | 0.00 | 37 | 1016.7 |
| 20260502232514 | 18 | 321 | 11.3 | 24.1 | 0.00 | 0.00 | 0.00 | 38 | 1016.8 |
| 20260502232013 | 18 | 294 | 14.5 | 24.1 | 0.00 | 0.00 | 0.00 | 37 | 1016.8 |
| 20260502231513 | 18 | 289 | 9.7 | 14.5 | 0.00 | 0.00 | 0.00 | 36 | 1016.9 |
| 20260502231015 | 17 | 288 | 8.0 | 11.3 | 0.00 | 0.00 | 0.00 | 37 | 1016.9 |
| 20260502230514 | 17 | 264 | 6.4 | 11.3 | 0.00 | 0.00 | 0.00 | 36 | 1017.0 |
| 20260502230012 | 17 | 238 | 4.8 | 11.3 | 0.00 | 0.00 | 0.00 | 37 | 1016.9 |
| 20260502225512 | 17 | 267 | 6.4 | 9.7 | 0.00 | 0.00 | 0.00 | 37 | 1016.9 |
| 20260502225011 | 17 | 237 | 6.4 | 9.7 | 0.00 | 0.00 | 0.00 | 37 | 1016.9 |
| 20260502224512 | 17 | 194 | 4.8 | 14.5 | 0.00 | 0.00 | 0.00 | 36 | 1017.0 |
| 20260502224017 | 18 | 188 | 8.0 | 14.5 | 0.00 | 0.00 | 0.00 | 36 | 1017.0 |
| 20260502223511 | 18 | 213 | 9.7 | 12.9 | 0.00 | 0.00 | 0.00 | 36 | 1017.0 |
| 20260502223031 | 18 | 230 | 3.2 | 11.3 | 0.00 | 0.00 | 0.00 | 36 | 1017.1 |
| 20260502222511 | 18 | 355 | 0.0 | 12.9 | 0.00 | 0.00 | 0.00 | 36 | 1017.1 |
| 20260502222012 | 18 | 266 | 6.4 | 20.9 | 0.00 | 0.00 | 0.00 | 36 | 1017.1 |
| 20260502221510 | 18 | 216 | 9.7 | 20.9 | 0.00 | 0.00 | 0.00 | 36 | 1017.2 |
| 20260502221015 | 18 | 254 | 12.9 | 16.1 | 0.00 | 0.00 | 0.00 | 36 | 1017.3 |
| 20260502220510 | 18 | 277 | 3.2 | 12.9 | 0.00 | 0.00 | 0.00 | 36 | 1017.4 |
| 20260502220010 | 18 | 315 | 8.0 | 12.9 | 0.00 | 0.00 | 0.00 | 37 | 1017.6 |
| 20260502215508 | 18 | 281 | 4.8 | 9.7 | 0.00 | 0.00 | 0.00 | 37 | 1017.6 |
| 20260502215009 | 18 | 198 | 4.8 | 9.7 | 0.00 | 0.00 | 0.00 | 37 | 1017.8 |
| 20260502214509 | 17 | 154 | 3.2 | 14.5 | 0.00 | 0.00 | 0.00 | 38 | 1017.7 |
| 20260502214014 | 17 | 19 | 6.4 | 14.5 | 0.00 | 0.00 | 0.00 | 38 | 1018.0 |
| 20260502213508 | 17 | 21 | 6.4 | 16.1 | 0.00 | 0.00 | 0.00 | 38 | 1017.9 |
| 20260502213007 | 17 | 15 | 4.8 | 19.3 | 0.00 | 0.00 | 0.00 | 38 | 1018.1 |
| 20260502212507 | 17 | 69 | 1.6 | 19.3 | 0.00 | 0.00 | 0.00 | 38 | 1018.2 |
| 20260502212008 | 17 | 101 | 4.8 | 14.5 | 0.00 | 0.00 | 0.00 | 38 | 1018.3 |
| 20260502211507 | 17 | 110 | 9.7 | 14.5 | 0.00 | 0.00 | 0.00 | 38 | 1018.4 |
| 20260502211007 | 17 | 88 | 6.4 | 14.5 | 0.00 | 0.00 | 0.00 | 39 | 1018.5 |
| 20260502210511 | 17 | 55 | 4.8 | 16.1 | 0.00 | 0.00 | 0.00 | 39 | 1018.6 |
| 20260502210007 | 17 | 37 | 6.4 | 16.1 | 0.00 | 0.00 | 0.00 | 39 | 1018.6 |
| 20260502205508 | 17 | 360 | 4.8 | 17.7 | 0.00 | 0.00 | 0.00 | 39 | 1018.7 |
| 20260502205006 | 17 | 45 | 11.3 | 17.7 | 0.00 | 0.00 | 0.00 | 39 | 1018.7 |
| 20260502204508 | 17 | 305 | 4.8 | 14.5 | 0.00 | 0.00 | 0.00 | 40 | 1018.8 |
| 20260502204006 | 17 | 321 | 6.4 | 14.5 | 0.00 | 0.00 | 0.00 | 39 | 1018.9 |
| 20260502203506 | 17 | 30 | 4.8 | 27.4 | 0.00 | 0.00 | 0.00 | 39 | 1018.8 |
| 20260502203005 | 18 | 132 | 6.4 | 17.7 | 0.00 | 0.00 | 0.00 | 38 | 1019.0 |
| 20260502202506 | 18 | 355 | 3.2 | 16.1 | 0.00 | 0.00 | 0.00 | 38 | 1019.0 |
| 20260502202004 | 18 | 129 | 1.6 | 16.1 | 0.00 | 0.00 | 0.00 | 38 | 1019.0 |
| 20260502201504 | 17 | 38 | 4.8 | 14.5 | 0.00 | 0.00 | 0.00 | 39 | 1019.0 |
| 20260502201004 | 18 | 30 | 6.4 | 16.1 | 0.00 | 0.00 | 0.00 | 39 | 1019.1 |
| 20260502200503 | 17 | 5 | 3.2 | 16.1 | 0.00 | 0.00 | 0.00 | 40 | 1019.1 |
| 20260502200003 | 17 | 45 | 1.6 | 12.9 | 0.00 | 0.00 | 0.00 | 40 | 1019.1 |
| 20260502195502 | 17 | 246 | 4.8 | 16.1 | 0.00 | 0.00 | 0.00 | 40 | 1019.2 |
| 20260502195002 | 17 | 262 | 8.0 | 16.1 | 0.00 | 0.00 | 0.00 | 40 | 1019.2 |
| 20260502194501 | 17 | 355 | 1.6 | 12.9 | 0.00 | 0.00 | 0.00 | 41 | 1019.2 |
| 20260502194100 | 16 | 285 | 4.8 | 14.5 | 0.00 | 0.00 | 0.00 | 42 | 1019.2 |
| 20260502193600 | 16 | 281 | 8.0 | 14.5 | 0.00 | 0.00 | 0.00 | 41 | 1019.3 |
| 20260502193501 | 17 | 284 | 6.4 | 14.5 | 0.00 | 0.00 | 0.00 | 41 | 1019.3 |
| 20260502193100 | 17 | 317 | 3.2 | 8.0 | 0.00 | 0.00 | 0.00 | 41 | 1019.5 |
| 20260502192559 | 16 | 301 | 3.2 | 17.7 | 0.00 | 0.00 | 0.00 | 42 | 1019.5 |
| 20260502192059 | 16 | 256 | 8.0 | 17.7 | 0.00 | 0.00 | 0.00 | 41 | 1019.7 |
| 20260502191603 | 16 | 329 | 9.7 | 16.1 | 0.00 | 0.00 | 0.00 | 41 | 1019.7 |
| 20260502191059 | 16 | 304 | 4.8 | 8.0 | 0.00 | 0.00 | 0.00 | 42 | 1019.6 |
| 20260502190559 | 16 | 104 | 0.0 | 11.3 | 0.00 | 0.00 | 0.00 | 42 | 1019.7 |
| 20260502190059 | 16 | 119 | 6.4 | 11.3 | 0.00 | 0.00 | 0.00 | 41 | 1019.7 |
| 20260502185602 | 16 | 84 | 3.2 | 9.7 | 0.00 | 0.00 | 0.00 | 41 | 1019.8 |
| 20260502185058 | 16 | 81 | 0.0 | 3.2 | 0.00 | 0.00 | 0.00 | 42 | 1019.8 |
| 20260502184558 | 16 | 57 | 0.0 | 8.0 | 0.00 | 0.00 | 0.00 | 43 | 1019.9 |
| 20260502184058 | 16 | 57 | 1.6 | 12.9 | 0.00 | 0.00 | 0.00 | 43 | 1019.9 |
| 20260502183558 | 16 | 100 | 4.8 | 11.3 | 0.00 | 0.00 | 0.00 | 42 | 1019.9 |
| 20260502183107 | 16 | 65 | 6.4 | 11.3 | 0.00 | 0.00 | 0.00 | 43 | 1019.9 |
| 20260502182600 | 16 | 149 | 0.0 | 9.7 | 0.00 | 0.00 | 0.00 | 42 | 1020.0 |
| 20260502182057 | 16 | 80 | 3.2 | 9.7 | 0.00 | 0.00 | 0.00 | 41 | 1020.0 |
| 20260502181558 | 16 | 11 | 3.2 | 16.1 | 0.00 | 0.00 | 0.00 | 41 | 1020.0 |
| 20260502181057 | 17 | 301 | 9.7 | 16.1 | 0.00 | 0.00 | 0.00 | 40 | 1020.1 |
| 20260502180557 | 17 | 27 | 3.2 | 6.4 | 0.00 | 0.00 | 0.00 | 41 | 1020.0 |
| 20260502164046 | 15 | 355 | 6.4 | 14.5 | 0.00 | 0.00 | 0.00 | 45 | 1020.4 |
| 20260502163542 | 15 | 348 | 1.6 | 12.9 | 0.00 | 0.00 | 0.00 | 46 | 1020.5 |
| 20260502163054 | 15 | 275 | 3.2 | 14.5 | 0.00 | 0.00 | 0.00 | 46 | 1020.6 |
| 20260502162542 | 14 | 5 | 4.8 | 14.5 | 0.00 | 0.00 | 0.00 | 47 | 1020.6 |
| 20260502162042 | 14 | 305 | 4.8 | 14.5 | 0.00 | 0.00 | 0.00 | 48 | 1020.6 |
| 20260502161555 | 14 | 254 | 3.2 | 17.7 | 0.00 | 0.00 | 0.00 | 48 | 1020.8 |
| 20260502161040 | 14 | 324 | 8.0 | 17.7 | 0.00 | 0.00 | 0.00 | 48 | 1020.7 |
| 20260502160540 | 14 | 262 | 4.8 | 12.9 | 0.00 | 0.00 | 0.00 | 48 | 1020.7 |
| 20260502152036 | 13 | 324 | 11.3 | 19.3 | 0.00 | 0.00 | 0.00 | 51 | 1020.7 |
| 20260502151538 | 13 | 325 | 11.3 | 19.3 | 0.00 | 0.00 | 0.00 | 51 | 1020.7 |
| 20260502151035 | 12 | 320 | 12.9 | 19.3 | 0.00 | 0.00 | 0.00 | 52 | 1020.7 |
| 20260502150535 | 12 | 319 | 14.5 | 20.9 | 0.00 | 0.00 | 0.00 | 52 | 1020.7 |
| 20260502130517 | 8 | 349 | 6.4 | 14.5 | 0.00 | 0.00 | 0.00 | 62 | 1020.5 |
| 20260502123507 | 8 | 319 | 9.7 | 19.3 | 0.00 | 0.00 | 0.00 | 60 | 1020.4 |
| 20260502123008 | 8 | 334 | 12.9 | 19.3 | 0.00 | 0.00 | 0.00 | 61 | 1020.3 |
| 20260502122505 | 8 | 332 | 11.3 | 17.7 | 0.00 | 0.00 | 0.00 | 61 | 1020.3 |
| 20260502122006 | 8 | 318 | 11.3 | 16.1 | 0.00 | 0.00 | 0.00 | 61 | 1020.4 |
| 20260502121504 | 8 | 343 | 11.3 | 19.3 | 0.00 | 0.00 | 0.00 | 61 | 1020.5 |
| 20260502121003 | 8 | 319 | 14.5 | 20.9 | 0.00 | 0.00 | 0.00 | 60 | 1020.5 |
| 20260502120503 | 9 | 327 | 11.3 | 20.9 | 0.00 | 0.00 | 0.00 | 59 | 1020.4 |
| 20260502120120 | 9 | 350 | 9.7 | 20.9 | 0.00 | 0.00 | 0.00 | 59 | 1020.3 |
| 20260502115600 | 9 | 349 | 14.5 | 22.5 | 0.00 | 0.00 | 0.00 | 58 | 1020.2 |
| 20260502115059 | 9 | 329 | 16.1 | 22.5 | 0.00 | 0.00 | 0.00 | 58 | 1020.2 |
| 20260502114605 | 10 | 320 | 16.1 | 20.9 | 0.00 | 0.00 | 0.00 | 58 | 1020.2 |
| 20260502114058 | 10 | 323 | 14.5 | 22.5 | 0.00 | 0.00 | 0.00 | 58 | 1020.3 |
| 20260502113557 | 10 | 326 | 17.7 | 25.7 | 0.00 | 0.00 | 0.00 | 58 | 1020.2 |
| 20260502113118 | 10 | 325 | 17.7 | 25.7 | 0.00 | 0.00 | 0.00 | 57 | 1020.3 |
| 20260502112555 | 10 | 338 | 12.9 | 25.7 | 0.00 | 0.00 | 0.00 | 57 | 1020.0 |
| 20260502112055 | 10 | 332 | 14.5 | 27.4 | 0.00 | 0.00 | 0.00 | 57 | 1020.0 |
| 20260502111555 | 10 | 334 | 17.7 | 29.0 | 0.00 | 0.00 | 0.00 | 57 | 1019.9 |
| 20260502111057 | 10 | 343 | 19.3 | 32.2 | 0.00 | 0.00 | 0.00 | 56 | 1019.7 |
| 20260502110554 | 10 | 336 | 20.9 | 32.2 | 0.00 | 0.00 | 0.00 | 56 | 1019.7 |
| 20260502110054 | 10 | 337 | 19.3 | 37.0 | 0.00 | 0.00 | 0.00 | 56 | 1019.7 |
| 20260502105552 | 10 | 338 | 22.5 | 38.6 | 0.00 | 0.00 | 0.00 | 56 | 1019.6 |
| 20260502105051 | 10 | 351 | 27.4 | 40.2 | 0.00 | 0.00 | 0.00 | 55 | 1019.4 |
| 20260502104048 | 10 | 326 | 32.2 | 43.5 | 0.00 | 0.00 | 0.00 | 53 | 1019.0 |
| 20260502103549 | 10 | 341 | 22.5 | 46.7 | 0.00 | 0.00 | 0.00 | 53 | 1018.8 |
| 20260502103045 | 11 | 334 | 32.2 | 46.7 | 0.00 | 0.00 | 0.00 | 52 | 1018.6 |
| 20260502102544 | 11 | 329 | 25.7 | 51.5 | 0.00 | 0.00 | 0.00 | 52 | 1018.5 |
| 20260502102044 | 11 | 327 | 32.2 | 51.5 | 0.00 | 0.00 | 0.00 | 52 | 1018.3 |
| 20260502101545 | 10 | 340 | 33.8 | 49.9 | 0.00 | 0.00 | 0.00 | 53 | 1018.2 |
| 20260502101042 | 10 | 331 | 30.6 | 49.9 | 0.00 | 0.00 | 0.00 | 53 | 1018.1 |
| 20260502100542 | 10 | 330 | 33.8 | 48.3 | 0.00 | 0.00 | 0.00 | 53 | 1018.1 |
| 20260502091034 | 10 | 345 | 22.5 | 35.4 | 0.00 | 0.00 | 0.00 | 50 | 1017.6 |
| 20260502090534 | 10 | 327 | 19.3 | 32.2 | 0.00 | 0.00 | 0.00 | 50 | 1017.5 |
| 20260502071519 | 15 | 269 | 20.9 | 30.6 | 0.00 | 0.00 | 0.00 | 34 | 1017.3 |
| 20260502071019 | 15 | 278 | 20.9 | 29.0 | 0.00 | 0.00 | 0.00 | 35 | 1017.2 |
| 20260502070519 | 15 | 284 | 19.3 | 29.0 | 0.00 | 0.00 | 0.00 | 35 | 1017.2 |
| 20260502070021 | 15 | 293 | 19.3 | 25.7 | 0.00 | 0.00 | 0.00 | 35 | 1017.2 |
| 20260502065519 | 15 | 300 | 20.9 | 29.0 | 0.00 | 0.00 | 0.00 | 34 | 1017.2 |
| 20260502065017 | 15 | 302 | 20.9 | 29.0 | 0.00 | 0.00 | 0.00 | 33 | 1017.3 |
| 20260502064517 | 16 | 299 | 19.3 | 25.7 | 0.00 | 0.00 | 0.00 | 33 | 1017.2 |
| 20260502064015 | 15 | 278 | 19.3 | 25.7 | 0.00 | 0.00 | 0.00 | 36 | 1017.1 |
| 20260502063515 | 11 | 288 | 8.0 | 14.5 | 0.00 | 0.00 | 0.00 | 41 | 1017.2 |
| 20260502063015 | 12 | 230 | 6.4 | 17.7 | 0.00 | 0.00 | 0.00 | 41 | 1017.3 |
| 20260502062515 | 12 | 227 | 11.3 | 17.7 | 0.00 | 0.00 | 0.00 | 41 | 1017.1 |
| 20260502062012 | 11 | 222 | 11.3 | 17.7 | 0.00 | 0.00 | 0.00 | 42 | 1017.2 |
| 20260502061511 | 12 | 227 | 12.9 | 22.5 | 0.00 | 0.00 | 0.00 | 42 | 1017.1 |
| 20260502061010 | 11 | 221 | 14.5 | 22.5 | 0.00 | 0.00 | 0.00 | 43 | 1017.2 |
| 20260502060513 | 11 | 220 | 9.7 | 14.5 | 0.00 | 0.00 | 0.00 | 43 | 1017.2 |
| 20260502060008 | 11 | 224 | 9.7 | 14.5 | 0.00 | 0.00 | 0.00 | 43 | 1017.1 |
| 20260502055508 | 11 | 226 | 11.3 | 16.1 | 0.00 | 0.00 | 0.00 | 43 | 1017.0 |
| 20260502055008 | 11 | 213 | 9.7 | 14.5 | 0.00 | 0.00 | 0.00 | 43 | 1017.0 |
| 20260502054507 | 11 | 221 | 9.7 | 14.5 | 0.00 | 0.00 | 0.00 | 43 | 1017.0 |
| 20260502054008 | 11 | 223 | 9.7 | 14.5 | 0.00 | 0.00 | 0.00 | 42 | 1017.1 |
| 20260502053507 | 11 | 211 | 9.7 | 14.5 | 0.00 | 0.00 | 0.00 | 41 | 1017.1 |
| 20260502053007 | 11 | 227 | 9.7 | 14.5 | 0.00 | 0.00 | 0.00 | 41 | 1017.0 |
| 20260502052507 | 11 | 226 | 11.3 | 14.5 | 0.00 | 0.00 | 0.00 | 41 | 1017.0 |
| 20260502052008 | 11 | 215 | 9.7 | 14.5 | 0.00 | 0.00 | 0.00 | 40 | 1017.0 |
| 20260502051506 | 11 | 225 | 9.7 | 14.5 | 0.00 | 0.00 | 0.00 | 41 | 1017.0 |
| 20260502051006 | 11 | 238 | 6.4 | 12.9 | 0.00 | 0.00 | 0.00 | 40 | 1017.0 |
| 20260502050506 | 12 | 234 | 8.0 | 12.9 | 0.00 | 0.00 | 0.00 | 39 | 1017.0 |
| 20260502050008 | 12 | 229 | 9.7 | 16.1 | 0.00 | 0.00 | 0.00 | 39 | 1017.0 |
| 20260502045506 | 12 | 228 | 11.3 | 12.9 | 0.00 | 0.00 | 0.00 | 38 | 1017.0 |
| 20260502045106 | 12 | 224 | 9.7 | 16.1 | 0.00 | 0.00 | 0.00 | 37 | 1016.9 |
| 20260502044505 | 13 | 245 | 12.9 | 19.3 | 0.00 | 0.00 | 0.00 | 37 | 1017.0 |
| 20260502044004 | 13 | 252 | 14.5 | 19.3 | 0.00 | 0.00 | 0.00 | 37 | 1017.0 |
| 20260502043504 | 12 | 241 | 12.9 | 17.7 | 0.00 | 0.00 | 0.00 | 37 | 1017.1 |
| 20260502043004 | 12 | 223 | 9.7 | 16.1 | 0.00 | 0.00 | 0.00 | 36 | 1017.0 |
| 20260502042504 | 13 | 234 | 9.7 | 16.1 | 0.00 | 0.00 | 0.00 | 35 | 1017.0 |
| 20260502042005 | 13 | 234 | 11.3 | 14.5 | 0.00 | 0.00 | 0.00 | 35 | 1016.9 |
| 20260502041504 | 13 | 213 | 9.7 | 16.1 | 0.00 | 0.00 | 0.00 | 34 | 1017.0 |
| 20260502041004 | 13 | 229 | 9.7 | 14.5 | 0.00 | 0.00 | 0.00 | 34 | 1017.0 |
| 20260502040503 | 13 | 238 | 6.4 | 12.9 | 0.00 | 0.00 | 0.00 | 33 | 1017.1 |
| 20260502040004 | 13 | 216 | 6.4 | 12.9 | 0.00 | 0.00 | 0.00 | 33 | 1017.2 |
| 20260502035505 | 13 | 238 | 6.4 | 11.3 | 0.00 | 0.00 | 0.00 | 33 | 1017.2 |
| 20260502035003 | 13 | 241 | 3.2 | 6.4 | 0.00 | 0.00 | 0.00 | 33 | 1017.1 |
| 20260502034503 | 13 | 250 | 4.8 | 8.0 | 0.00 | 0.00 | 0.00 | 32 | 1017.1 |
| 20260502034003 | 13 | 242 | 6.4 | 11.3 | 0.00 | 0.00 | 0.00 | 31 | 1017.0 |
| 20260502033502 | 14 | 227 | 4.8 | 14.5 | 0.00 | 0.00 | 0.00 | 30 | 1017.0 |
| 20260502033002 | 14 | 250 | 11.3 | 14.5 | 0.00 | 0.00 | 0.00 | 31 | 1016.9 |
| 20260502032503 | 14 | 227 | 6.4 | 11.3 | 0.00 | 0.00 | 0.00 | 30 | 1017.0 |
| 20260502032002 | 14 | 264 | 8.0 | 12.9 | 0.00 | 0.00 | 0.00 | 30 | 1017.0 |
| 20260502031502 | 15 | 253 | 6.4 | 17.7 | 0.00 | 0.00 | 0.00 | 29 | 1016.9 |
| 20260502031002 | 15 | 239 | 11.3 | 17.7 | 0.00 | 0.00 | 0.00 | 29 | 1016.9 |
| 20260502030500 | 15 | 227 | 9.7 | 14.5 | 0.00 | 0.00 | 0.00 | 29 | 1016.9 |
| 20260502030002 | 15 | 218 | 8.0 | 11.3 | 0.00 | 0.00 | 0.00 | 27 | 1016.8 |
| 20260502025501 | 16 | 216 | 8.0 | 14.5 | 0.00 | 0.00 | 0.00 | 27 | 1016.7 |
| 20260502025001 | 16 | 227 | 9.7 | 16.1 | 0.00 | 0.00 | 0.00 | 26 | 1016.6 |
| 20260502024502 | 16 | 213 | 9.7 | 16.1 | 0.00 | 0.00 | 0.00 | 26 | 1016.6 |
| 20260502024100 | 16 | 226 | 9.7 | 12.9 | 0.00 | 0.00 | 0.00 | 25 | 1016.6 |
| 20260502023559 | 17 | 211 | 6.4 | 16.1 | 0.00 | 0.00 | 0.00 | 24 | 1016.6 |
| 20260502023100 | 17 | 236 | 9.7 | 17.7 | 0.00 | 0.00 | 0.00 | 24 | 1016.5 |
| 20260502022600 | 18 | 257 | 12.9 | 20.9 | 0.00 | 0.00 | 0.00 | 23 | 1016.4 |
| 20260502022058 | 18 | 246 | 14.5 | 20.9 | 0.00 | 0.00 | 0.00 | 22 | 1016.4 |
| 20260502021559 | 19 | 265 | 16.1 | 22.5 | 0.00 | 0.00 | 0.00 | 22 | 1016.3 |
| 20260502021101 | 19 | 251 | 16.1 | 24.1 | 0.00 | 0.00 | 0.00 | 21 | 1016.4 |